KAVP/AVP METAR and TAF weather

Enter ICAO airport designator
Station Type Date Time Source
KAVP METAR 2018/04/20 08:32 UTC NOAA

KAVP 200832Z 32012KT 10SM SCT027 BKN043 OVC050 M01/M04 A3011 RMK AO2 T10061039


Station Type Date Time Source
KAVP Decoded METAR 2018/04/20 08:32 UTC NOAA

WILKES-BARRE/SCRANTON INTERNATIONAL , PA, United States (KAVP) 41-20N 75-44W 291M
Apr 20, 2018 - 04:32 AM EDT / 2018.04.20 0832 UTC
Wind: from the NW (320 degrees) at 14 MPH (12 KT):0
Visibility: 10 mile(s):0
Sky conditions: overcast
Temperature: 30.9 F (-0.6 C)
Windchill: 21 F (-6 C):1
Dew Point: 25.0 F (-3.9 C)
Relative Humidity: 78%
Pressure (altimeter): 30.11 in. Hg (1019 hPa)
ob: KAVP 200832Z 32012KT 10SM SCT027 BKN043 OVC050 M01/M04 A3011 RMK AO2 T10061039
cycle: 8

Station Type Date Time Source
KAVP TAF 2018/04/20 07:36 UTC NOAA

TAF
AMD KAVP 200635Z 2007/2106 33010KT P6SM -SHSN BKN035 OVC060
TEMPO 2007/2009 2SM -SHSN BR BKN025
FM201300 31014G24KT P6SM BKN035
FM202000 32012G21KT P6SM SCT080
FM210200 33006KT P6SM FEW090


Example: see airport list